Cayuta, New York
Current Conditions -  °F | °C
As of 1:53 AM on Saturday 25 Oct 2014 (Local Time) from KELM Reporting Station
Clear Clear  
Wind Chill: 35°   Ceiling: Unl
Heat Index: 41°   Visibility: 10mi
Dew Point: 33°   Wind: 10mph
Humidity: 73%   Direction: 250°WSW
Pressure: 29.91"   Gusts: NA
Location:  42.28°N, 76.7°W
Report Text: KELM 250553Z AUTO 25009KT 10SM CLR 05/01 A2991 RMK AO2 SLP130 T00500006 10089 20050 56008
Loading
Personal Weather Stations






























Interactive Weather Map
Tropical Storm Tracking
New forecast layout! Learn more

10-Day Weather Forecast

Advertisements
Track Severe Weather on mobile